Αρχική σελίδα
METAR-TAF:

METAR-TAF

Αεροδρόμια :

Fort Chipewyan, Αλμπέρτα, Καναδάς

γεωγραφικό πλάτος: 58-46N, γεωγραφικό μήκος: 111-07W, υψόμετρο: 232 μ

Παρών καιρός

Η αναφορά έγινε 51 λεπτά πριν, στις 05:00 UTC
Άνεμος 5 kt από Ν, μεταβλητός μεταξύ Α/NA και ΝΔ
Θερμοκρασία 7°C
Υγρασία 49%
Πίεση 1011 hPa
Ορατότητα: 14.5 χλμ
Λίγα νέφη σε ύψος 24000 πόδια

METAR: CYPY 220500Z AUTO 18005KT 110V230 9SM FEW240 07/M03 A2986 RMK SLP124

Χρόνος: 23:51 (05:51 UTC)

Πρόγνωση Καιρού

Η αναφορά έγινε 6 ώρες και 12 λεπτά πριν, στις 23:39 UTC
Η πρόγνωση ισχύει από τις 22 στις 00 UTC έως τις 22 στις 06 UTC
Άνεμος 8 kt από ΝA
Ορατότητα: 10 χλμ
Καθαρός ουρανός

TAF: CYPY 212339Z 2200/2206 13008KT P6SM SKC RMK FCST BASED ON AUTO OBS. NXT FCST WILL BE ISSUED AT 221145Z

Μετεωρολογικές αναφορές και προγνώσεις για περισσότερα από 4000 αεροδρόμια (δελτία METAR και TAF).

Οι διαθέσιμοι σταθμοί απεικονίζονται στο χάρτη με κίτρινες και κόκκινες κουκκίδες.

Μετακινήστε το ποντίκι πάνω από τις κουκκίδες για να δείτε το όνομα του σταθμού.

Στη συνέχεια, κάντε κλικ για να δείτε τις μετεωρολογικές αναφορές και τις προγνώσεις καιρού.

Για να αλλάξετε το χάρτη: κάντε κλικ στα πράσινα κουμπιά με τον μαύρο σταυρό για να ζουμάρετε, στο πράσινο κουμπί με την παύλα για να αφαιρέσετε το ζουμ ή στα πράσινα βέλη για να αντιπαραβάλλετε χάρτες.


METAR-TAF: